createdAt,value
2018-04-08T00:00:17.802Z,15.83
2018-04-08T00:01:17.797Z,15.82
2018-04-08T00:02:17.791Z,15.84
2018-04-08T00:03:17.786Z,15.82
2018-04-08T00:04:17.780Z,15.75
2018-04-08T00:05:17.776Z,15.70
2018-04-08T00:06:17.769Z,15.68
2018-04-08T00:07:17.763Z,15.67
2018-04-08T00:08:17.760Z,15.70
2018-04-08T00:09:17.752Z,15.61
2018-04-08T00:10:17.747Z,15.62
2018-04-08T00:11:17.741Z,15.52
2018-04-08T00:12:17.734Z,15.55
2018-04-08T00:13:17.724Z,15.57
2018-04-08T00:14:17.725Z,15.49
2018-04-08T00:15:17.717Z,15.51
2018-04-08T00:16:17.715Z,15.44
2018-04-08T00:17:17.707Z,15.31
2018-04-08T00:18:17.713Z,15.28
2018-04-08T00:19:17.699Z,15.36
2018-04-08T00:20:17.690Z,15.31
2018-04-08T00:21:17.682Z,15.31
2018-04-08T00:22:17.689Z,15.29
2018-04-08T00:23:17.674Z,15.22
2018-04-08T00:24:17.663Z,15.24
2018-04-08T00:25:17.657Z,15.19
2018-04-08T00:26:17.652Z,15.27
2018-04-08T00:27:17.648Z,15.21
2018-04-08T00:28:17.640Z,15.22
2018-04-08T00:29:17.635Z,15.17
2018-04-08T00:30:17.632Z,15.24
2018-04-08T00:31:17.627Z,15.19
2018-04-08T00:32:17.617Z,15.22
2018-04-08T00:33:17.616Z,15.19
2018-04-08T00:34:17.608Z,15.15
2018-04-08T00:35:17.602Z,15.07
2018-04-08T00:36:17.588Z,15.07
2018-04-08T00:37:17.586Z,15.11
2018-04-08T00:38:17.591Z,15.14
2018-04-08T00:39:17.577Z,15.10
2018-04-08T00:40:17.570Z,15.07
2018-04-08T00:41:17.564Z,15.02
2018-04-08T00:42:17.563Z,15.00
2018-04-08T00:43:17.552Z,15.06
2018-04-08T00:44:17.545Z,15.03
2018-04-08T00:45:17.543Z,14.99
2018-04-08T00:46:17.529Z,15.04
2018-04-08T00:47:17.534Z,15.00
2018-04-08T00:48:17.521Z,14.89
2018-04-08T00:49:17.512Z,14.94
2018-04-08T00:50:19.427Z,14.86
2018-04-08T00:51:19.425Z,14.86
2018-04-08T00:52:19.428Z,14.82
2018-04-08T00:53:17.487Z,14.91
2018-04-08T00:54:17.480Z,14.89
2018-04-08T00:55:17.480Z,14.91
2018-04-08T00:56:17.478Z,14.79
2018-04-08T00:57:17.467Z,14.81
2018-04-08T00:58:17.463Z,14.91
2018-04-08T00:59:17.451Z,14.92
2018-04-08T01:00:17.448Z,14.96
2018-04-08T01:01:17.441Z,14.92
2018-04-08T01:02:17.434Z,14.92
2018-04-08T01:03:17.430Z,14.91
2018-04-08T01:04:17.427Z,14.89
2018-04-08T01:05:17.418Z,14.96
2018-04-08T01:06:17.411Z,14.88
2018-04-08T01:07:17.402Z,14.86
2018-04-08T01:08:18.951Z,14.82
2018-04-08T01:09:17.393Z,14.82
2018-04-08T01:10:17.384Z,14.82
2018-04-08T01:11:17.380Z,14.70
2018-04-08T01:12:17.376Z,14.81
2018-04-08T01:13:17.367Z,14.69
2018-04-08T01:14:17.364Z,14.81
2018-04-08T01:15:17.352Z,14.72
2018-04-08T01:16:17.351Z,14.86
2018-04-08T01:17:17.342Z,14.69
2018-04-08T01:18:17.337Z,14.69
2018-04-08T01:19:17.331Z,14.77
2018-04-08T01:20:17.324Z,14.70
2018-04-08T01:21:17.320Z,14.81
2018-04-08T01:22:17.312Z,14.69
2018-04-08T01:23:17.305Z,14.69
2018-04-08T01:24:17.300Z,14.63
2018-04-08T01:25:17.297Z,14.65
2018-04-08T01:26:23.974Z,14.55
2018-04-08T01:27:17.281Z,14.60
2018-04-08T01:28:17.276Z,14.51
2018-04-08T01:29:17.271Z,14.55
2018-04-08T01:30:17.261Z,14.53
2018-04-08T01:31:18.935Z,14.60
2018-04-08T01:32:17.256Z,14.54
2018-04-08T01:33:17.241Z,14.48
2018-04-08T01:34:17.236Z,14.50
2018-04-08T01:35:17.237Z,14.47
2018-04-08T01:36:17.271Z,14.50
2018-04-08T01:37:17.223Z,14.51
2018-04-08T01:38:17.211Z,14.45
2018-04-08T01:39:17.204Z,14.53
2018-04-08T01:40:17.202Z,14.55
2018-04-08T01:41:17.192Z,14.50
2018-04-08T01:42:17.187Z,14.47
2018-04-08T01:43:17.180Z,14.45
2018-04-08T01:44:17.174Z,14.45
2018-04-08T01:45:17.172Z,14.45
2018-04-08T01:46:17.158Z,14.36
2018-04-08T01:47:17.154Z,14.33
2018-04-08T01:48:17.148Z,14.28
2018-04-08T01:49:17.140Z,14.22
2018-04-08T01:50:17.134Z,14.20
2018-04-08T01:51:17.127Z,14.25
2018-04-08T01:52:17.124Z,14.12
2018-04-08T01:53:17.114Z,14.07
2018-04-08T01:54:17.108Z,14.12
2018-04-08T01:55:17.102Z,14.08
2018-04-08T01:56:17.101Z,13.95
2018-04-08T01:57:17.090Z,13.99
2018-04-08T01:58:17.088Z,13.96
2018-04-08T01:59:17.079Z,13.99
2018-04-08T02:00:17.071Z,13.92
2018-04-08T02:01:17.065Z,13.96
2018-04-08T02:02:17.062Z,13.99
2018-04-08T02:03:17.054Z,13.90
2018-04-08T02:04:17.045Z,13.96
2018-04-08T02:05:17.035Z,14.04
2018-04-08T02:06:17.032Z,13.99
2018-04-08T02:07:17.026Z,13.97
2018-04-08T02:08:17.022Z,13.95
2018-04-08T02:09:17.011Z,13.96
2018-04-08T02:10:17.007Z,14.00
2018-04-08T02:11:17.012Z,14.00
2018-04-08T02:12:17.017Z,13.90
2018-04-08T02:13:16.985Z,13.96
2018-04-08T02:14:16.980Z,13.90
2018-04-08T02:15:16.976Z,13.97
2018-04-08T02:16:16.965Z,13.97
2018-04-08T02:17:16.963Z,14.05
2018-04-08T02:18:16.952Z,13.99
2018-04-08T02:19:16.945Z,14.03
2018-04-08T02:20:16.944Z,13.95
2018-04-08T02:21:16.937Z,13.97
2018-04-08T02:22:16.927Z,13.95
2018-04-08T02:23:16.921Z,13.95
2018-04-08T02:24:16.921Z,13.99
2018-04-08T02:25:16.906Z,13.97
2018-04-08T02:26:16.900Z,14.00
2018-04-08T02:27:16.896Z,13.97
2018-04-08T02:28:16.884Z,13.89
2018-04-08T02:29:16.883Z,13.95
2018-04-08T02:30:16.879Z,13.92
2018-04-08T02:31:16.869Z,13.89
2018-04-08T02:32:16.863Z,13.87
2018-04-08T02:33:16.855Z,13.87
2018-04-08T02:34:16.847Z,13.89
2018-04-08T02:35:16.843Z,13.87
2018-04-08T02:36:16.836Z,13.81
2018-04-08T02:37:16.825Z,13.78
2018-04-08T02:38:16.822Z,13.79
2018-04-08T02:39:16.817Z,13.79
2018-04-08T02:40:16.805Z,13.83
2018-04-08T02:41:16.802Z,13.75
2018-04-08T02:42:16.795Z,13.74
2018-04-08T02:43:16.791Z,13.68
2018-04-08T02:44:16.781Z,13.59
2018-04-08T02:45:16.775Z,13.67
2018-04-08T02:46:16.776Z,13.60
2018-04-08T02:47:16.762Z,13.59
2018-04-08T02:48:16.754Z,13.52
2018-04-08T02:49:16.749Z,13.53
2018-04-08T02:50:16.736Z,13.53
2018-04-08T02:51:16.735Z,13.49
2018-04-08T02:52:16.728Z,13.57
2018-04-08T02:53:16.724Z,13.49
2018-04-08T02:54:16.714Z,13.52
2018-04-08T02:55:16.708Z,13.57
2018-04-08T02:56:16.707Z,13.50
2018-04-08T02:57:16.698Z,13.62
2018-04-08T02:58:16.697Z,13.65
2018-04-08T02:59:16.681Z,13.54
2018-04-08T03:00:16.675Z,13.63
2018-04-08T03:01:16.676Z,13.56
2018-04-08T03:02:16.655Z,13.50
2018-04-08T03:03:16.655Z,13.52
2018-04-08T03:04:16.657Z,13.52
2018-04-08T03:05:16.639Z,13.54
2018-04-08T03:06:16.640Z,13.50
2018-04-08T03:07:16.629Z,13.52
2018-04-08T03:08:16.621Z,13.42
2018-04-08T03:09:16.614Z,13.44
2018-04-08T03:10:16.609Z,13.33
2018-04-08T03:11:16.599Z,13.41
2018-04-08T03:12:16.594Z,13.31
2018-04-08T03:13:16.583Z,13.39
2018-04-08T03:14:16.580Z,13.37
2018-04-08T03:15:16.573Z,13.37
2018-04-08T03:16:16.568Z,13.33
2018-04-08T03:17:16.559Z,13.28
2018-04-08T03:18:16.552Z,13.23
2018-04-08T03:19:16.551Z,13.28
2018-04-08T03:20:16.542Z,13.23
2018-04-08T03:21:16.528Z,13.23
2018-04-08T03:22:16.519Z,13.23
2018-04-08T03:23:16.519Z,13.16
2018-04-08T03:24:16.513Z,13.20
2018-04-08T03:25:16.506Z,13.11
2018-04-08T03:26:16.498Z,13.09
2018-04-08T03:27:16.496Z,13.15
2018-04-08T03:28:16.484Z,13.16
2018-04-08T03:29:16.477Z,13.08
2018-04-08T03:30:16.468Z,13.16
2018-04-08T03:31:17.971Z,13.15
2018-04-08T03:32:16.459Z,13.11
2018-04-08T03:33:16.448Z,13.09
2018-04-08T03:34:16.444Z,13.09
2018-04-08T03:35:16.436Z,13.05
2018-04-08T03:36:16.431Z,13.01
2018-04-08T03:37:16.423Z,13.04
2018-04-08T03:38:16.415Z,12.94
2018-04-08T03:39:16.408Z,12.90
2018-04-08T03:40:16.403Z,12.94
2018-04-08T03:41:16.395Z,12.98
2018-04-08T03:42:16.387Z,13.04
2018-04-08T03:43:16.381Z,12.98
2018-04-08T03:44:16.370Z,13.01
2018-04-08T03:45:16.368Z,13.04
2018-04-08T03:46:16.360Z,13.04
2018-04-08T03:47:16.353Z,13.04
2018-04-08T03:48:16.346Z,13.04
2018-04-08T03:49:16.338Z,13.11
2018-04-08T03:50:16.331Z,13.08
2018-04-08T03:51:16.326Z,13.04
2018-04-08T03:52:16.320Z,13.03
2018-04-08T03:53:16.306Z,12.94
2018-04-08T03:54:16.307Z,13.00
2018-04-08T03:55:16.295Z,12.98
2018-04-08T03:56:16.293Z,12.98
2018-04-08T03:57:16.280Z,12.93
2018-04-08T03:58:16.281Z,12.94
2018-04-08T03:59:16.266Z,12.90
2018-04-08T04:00:16.263Z,12.93
2018-04-08T04:01:16.259Z,12.86
2018-04-08T04:02:16.252Z,12.86
2018-04-08T04:03:16.246Z,12.91
2018-04-08T04:04:16.235Z,12.93
2018-04-08T04:05:16.230Z,12.83
2018-04-08T04:06:16.218Z,12.82
2018-04-08T04:07:16.219Z,12.78
2018-04-08T04:08:16.208Z,12.80
2018-04-08T04:09:16.200Z,12.68
2018-04-08T04:10:16.195Z,12.70
2018-04-08T04:11:16.187Z,12.65
2018-04-08T04:12:16.182Z,12.73
2018-04-08T04:13:17.986Z,12.62
2018-04-08T04:14:16.165Z,12.72
2018-04-08T04:15:16.160Z,12.72
2018-04-08T04:16:16.153Z,12.64
2018-04-08T04:17:16.145Z,12.61
2018-04-08T04:18:16.138Z,12.67
2018-04-08T04:19:16.130Z,12.53
2018-04-08T04:20:16.123Z,12.43
2018-04-08T04:21:16.118Z,12.47
2018-04-08T04:22:16.113Z,12.37
2018-04-08T04:23:16.111Z,12.35
2018-04-08T04:24:16.098Z,12.29
2018-04-08T04:25:16.095Z,12.31
2018-04-08T04:26:16.083Z,12.28
2018-04-08T04:27:16.076Z,12.35
2018-04-08T04:28:16.069Z,12.20
2018-04-08T04:29:16.064Z,12.29
2018-04-08T04:30:16.055Z,12.32
2018-04-08T04:31:16.050Z,12.28
2018-04-08T04:32:16.049Z,12.27
2018-04-08T04:33:16.033Z,12.31
2018-04-08T04:34:16.025Z,12.36
2018-04-08T04:35:16.019Z,12.36
2018-04-08T04:36:16.014Z,12.28
2018-04-08T04:37:16.008Z,12.31
2018-04-08T04:38:15.998Z,12.31
2018-04-08T04:39:15.992Z,12.32
2018-04-08T04:40:15.985Z,12.37
2018-04-08T04:41:15.981Z,12.45
2018-04-08T04:42:15.968Z,12.47
2018-04-08T04:43:15.961Z,12.46
2018-04-08T04:44:15.961Z,12.42
2018-04-08T04:45:15.948Z,12.42
2018-04-08T04:46:15.945Z,12.46
2018-04-08T04:47:15.937Z,12.46
2018-04-08T04:48:15.923Z,12.40
2018-04-08T04:49:15.922Z,12.49
2018-04-08T04:50:15.915Z,12.45
2018-04-08T04:51:15.936Z,12.50
2018-04-08T04:52:15.901Z,12.53
2018-04-08T04:53:17.492Z,12.55
2018-04-08T04:54:15.886Z,12.55
2018-04-08T04:55:15.878Z,12.55
2018-04-08T04:56:15.873Z,12.54
2018-04-08T04:57:15.869Z,12.60
2018-04-08T04:58:15.859Z,12.58
2018-04-08T04:59:15.852Z,12.57
2018-04-08T05:00:15.843Z,12.58
2018-04-08T05:01:15.836Z,12.58
2018-04-08T05:02:15.830Z,12.60
2018-04-08T05:03:15.824Z,12.62
2018-04-08T05:04:15.820Z,12.65
2018-04-08T05:05:15.810Z,12.58
2018-04-08T05:06:15.803Z,12.49
2018-04-08T05:07:15.795Z,12.58
2018-04-08T05:08:15.793Z,12.55
2018-04-08T05:09:15.783Z,12.60
2018-04-08T05:10:15.774Z,12.58
2018-04-08T05:11:15.769Z,12.58
2018-04-08T05:12:15.761Z,12.58
2018-04-08T05:13:15.753Z,12.58
2018-04-08T05:14:15.746Z,12.64
2018-04-08T05:15:15.744Z,12.65
2018-04-08T05:16:15.730Z,12.62
2018-04-08T05:17:15.726Z,12.68
2018-04-08T05:18:15.717Z,12.64
2018-04-08T05:19:15.713Z,12.72
2018-04-08T05:20:15.706Z,12.73
2018-04-08T05:21:15.700Z,12.67
2018-04-08T05:22:17.506Z,12.65
2018-04-08T05:23:15.686Z,12.75
2018-04-08T05:24:15.679Z,12.82
2018-04-08T05:25:15.666Z,12.83
2018-04-08T05:26:15.664Z,12.79
2018-04-08T05:27:15.659Z,12.78
2018-04-08T05:28:15.652Z,12.83
2018-04-08T05:29:15.644Z,12.79
2018-04-08T05:30:15.639Z,12.79
2018-04-08T05:31:15.631Z,12.80
2018-04-08T05:32:15.625Z,12.80
2018-04-08T05:33:15.617Z,12.85
2018-04-08T05:34:15.612Z,12.91
2018-04-08T05:35:15.613Z,12.93
2018-04-08T05:36:15.600Z,12.90
2018-04-08T05:37:15.594Z,12.98
2018-04-08T05:38:15.583Z,13.03
2018-04-08T05:39:15.583Z,13.01
2018-04-08T05:40:15.573Z,13.03
2018-04-08T05:41:15.565Z,13.11
2018-04-08T05:42:15.560Z,13.13
2018-04-08T05:43:15.554Z,13.16
2018-04-08T05:44:15.549Z,13.16
2018-04-08T05:45:15.544Z,13.16
2018-04-08T05:46:15.534Z,13.19
2018-04-08T05:47:15.528Z,13.27
2018-04-08T05:48:15.524Z,13.31
2018-04-08T05:49:15.512Z,13.25
2018-04-08T05:50:15.519Z,13.28
2018-04-08T05:51:15.503Z,13.37
2018-04-08T05:52:15.495Z,13.35
2018-04-08T05:53:15.490Z,13.38
2018-04-08T05:54:15.484Z,13.46
2018-04-08T05:55:15.477Z,13.52
2018-04-08T05:56:15.472Z,13.53
2018-04-08T05:57:15.465Z,13.47
2018-04-08T05:58:15.461Z,13.52
2018-04-08T05:59:15.452Z,13.54
2018-04-08T06:00:15.446Z,13.52
2018-04-08T06:01:15.450Z,13.49
2018-04-08T06:02:15.437Z,13.52
2018-04-08T06:03:15.429Z,13.52
2018-04-08T06:04:15.423Z,13.59
2018-04-08T06:05:15.417Z,13.53
2018-04-08T06:06:15.418Z,13.65
2018-04-08T06:07:15.408Z,13.60
2018-04-08T06:08:15.409Z,13.59
2018-04-08T06:09:15.393Z,13.54
2018-04-08T06:10:15.387Z,13.53
2018-04-08T06:11:15.383Z,13.56
2018-04-08T06:12:15.375Z,13.53
2018-04-08T06:13:15.374Z,13.52
2018-04-08T06:14:15.364Z,13.54
2018-04-08T06:15:15.360Z,13.56
2018-04-08T06:16:15.348Z,13.53
2018-04-08T06:17:15.345Z,13.54
2018-04-08T06:18:15.341Z,13.54
2018-04-08T06:19:15.335Z,13.52
2018-04-08T06:20:15.327Z,13.50
2018-04-08T06:21:15.322Z,13.54
2018-04-08T06:22:15.316Z,13.54
2018-04-08T06:23:15.309Z,13.63
2018-04-08T06:24:15.306Z,13.54
2018-04-08T06:25:15.298Z,13.65
2018-04-08T06:26:15.292Z,13.62
2018-04-08T06:27:15.450Z,13.70
2018-04-08T06:28:15.281Z,13.65
2018-04-08T06:29:15.275Z,13.70
2018-04-08T06:30:15.290Z,13.70
2018-04-08T06:31:15.268Z,13.77
2018-04-08T06:32:15.258Z,13.75
2018-04-08T06:33:15.249Z,13.75
2018-04-08T06:34:15.246Z,13.79
2018-04-08T06:35:15.244Z,13.75
2018-04-08T06:36:15.235Z,13.81
2018-04-08T06:37:15.232Z,13.75
2018-04-08T06:38:15.221Z,13.75
2018-04-08T06:39:15.218Z,13.79
2018-04-08T06:40:15.212Z,13.78
2018-04-08T06:41:15.201Z,13.83
2018-04-08T06:42:15.200Z,13.92
2018-04-08T06:43:15.195Z,13.85
2018-04-08T06:44:15.187Z,13.87
2018-04-08T06:45:15.184Z,13.89
2018-04-08T06:46:15.177Z,13.83
2018-04-08T06:47:15.174Z,13.89
2018-04-08T06:48:15.166Z,13.93
2018-04-08T06:49:15.159Z,13.90
2018-04-08T06:50:15.157Z,13.93
2018-04-08T06:51:15.149Z,13.95
2018-04-08T06:52:15.145Z,13.89
2018-04-08T06:53:15.140Z,13.93
2018-04-08T06:54:15.136Z,13.87
2018-04-08T06:55:15.130Z,13.89
2018-04-08T06:56:15.121Z,13.85
2018-04-08T06:57:15.156Z,13.85
2018-04-08T06:58:15.108Z,13.85
2018-04-08T06:59:15.106Z,13.83
2018-04-08T07:00:15.100Z,13.83
2018-04-08T07:01:15.092Z,13.85
2018-04-08T07:02:15.090Z,13.95
2018-04-08T07:03:15.079Z,14.00
2018-04-08T07:04:15.077Z,14.03
2018-04-08T07:05:15.096Z,13.87
2018-04-08T07:06:17.040Z,14.03
2018-04-08T07:07:15.059Z,13.99
2018-04-08T07:08:15.053Z,14.12
2018-04-08T07:09:15.047Z,14.11
2018-04-08T07:10:15.045Z,14.10
2018-04-08T07:11:15.042Z,14.18
2018-04-08T07:12:15.031Z,14.23
2018-04-08T07:13:15.029Z,14.25
2018-04-08T07:14:15.027Z,14.22
2018-04-08T07:15:15.018Z,14.33
2018-04-08T07:16:15.013Z,14.28
2018-04-08T07:17:15.010Z,14.28
2018-04-08T07:18:15.003Z,14.35
2018-04-08T07:19:15.003Z,14.41
2018-04-08T07:20:14.990Z,14.47
2018-04-08T07:21:14.986Z,14.47
2018-04-08T07:22:14.981Z,14.45
2018-04-08T07:23:14.973Z,14.58
2018-04-08T07:24:14.972Z,14.53
2018-04-08T07:25:14.966Z,14.54
2018-04-08T07:26:14.962Z,14.66
2018-04-08T07:27:14.956Z,14.65
2018-04-08T07:28:14.952Z,14.68
2018-04-08T07:29:14.945Z,14.72
2018-04-08T07:30:14.955Z,14.70
2018-04-08T07:31:14.938Z,14.81
2018-04-08T07:32:14.932Z,14.91
2018-04-08T07:33:14.940Z,14.92
2018-04-08T07:34:14.924Z,14.99
2018-04-08T07:35:14.921Z,14.94
2018-04-08T07:36:14.914Z,15.10
2018-04-08T07:37:14.912Z,15.09
2018-04-08T07:38:14.905Z,15.19
2018-04-08T07:39:14.899Z,15.22
2018-04-08T07:40:14.896Z,15.18
2018-04-08T07:41:14.887Z,15.28
2018-04-08T07:42:14.887Z,15.29
2018-04-08T07:43:14.883Z,15.40
2018-04-08T07:44:14.914Z,15.52
2018-04-08T07:45:14.875Z,15.73
2018-04-08T07:46:14.870Z,15.84
2018-04-08T07:47:14.863Z,15.91
2018-04-08T07:48:14.862Z,16.10
2018-04-08T07:49:14.861Z,16.10
2018-04-08T07:50:14.858Z,16.24
2018-04-08T07:51:14.851Z,16.29
2018-04-08T07:52:14.850Z,16.36
2018-04-08T07:53:14.846Z,16.43
2018-04-08T07:54:14.841Z,16.47
2018-04-08T07:55:14.842Z,16.58
2018-04-08T07:56:14.838Z,16.53
2018-04-08T07:57:14.835Z,16.66
2018-04-08T07:58:14.839Z,16.74
2018-04-08T07:59:14.831Z,16.90
2018-04-08T08:00:14.825Z,16.84
2018-04-08T08:01:14.820Z,16.97
2018-04-08T08:02:14.821Z,17.02
2018-04-08T08:03:15.186Z,17.12
2018-04-08T08:04:14.818Z,17.09
2018-04-08T08:05:14.812Z,17.15
2018-04-08T08:06:14.810Z,17.16
2018-04-08T08:07:14.809Z,17.12
2018-04-08T08:08:14.810Z,17.14
2018-04-08T08:09:14.812Z,17.20
2018-04-08T08:10:14.805Z,17.19
2018-04-08T08:11:14.848Z,17.20
2018-04-08T08:12:14.798Z,17.24
2018-04-08T08:13:14.792Z,17.44
2018-04-08T08:14:14.802Z,17.51
2018-04-08T08:15:14.794Z,17.57
2018-04-08T08:16:14.792Z,17.54
2018-04-08T08:17:14.787Z,17.71
2018-04-08T08:18:14.804Z,17.86
2018-04-08T08:19:14.788Z,18.00
2018-04-08T08:20:14.784Z,18.25
2018-04-08T08:21:14.782Z,18.52
2018-04-08T08:22:14.785Z,18.73
2018-04-08T08:23:14.786Z,18.73
2018-04-08T08:24:14.781Z,19.08
2018-04-08T08:25:14.781Z,19.30
2018-04-08T08:26:14.779Z,19.44
2018-04-08T08:27:14.779Z,19.52
2018-04-08T08:28:14.777Z,19.69
2018-04-08T08:29:14.779Z,19.79
2018-04-08T08:30:14.793Z,20.00
2018-04-08T08:31:14.784Z,19.95
2018-04-08T08:32:14.783Z,20.02
2018-04-08T08:33:14.786Z,20.14
2018-04-08T08:34:14.789Z,20.11
2018-04-08T08:35:14.796Z,20.39
2018-04-08T08:36:14.794Z,20.60
2018-04-08T08:37:14.791Z,20.63
2018-04-08T08:38:14.811Z,20.62
2018-04-08T08:39:14.793Z,20.52
2018-04-08T08:40:14.796Z,20.56
2018-04-08T08:41:14.798Z,20.60
2018-04-08T08:42:14.798Z,20.56
2018-04-08T08:43:14.800Z,20.56
2018-04-08T08:44:14.800Z,20.55
2018-04-08T08:45:14.802Z,20.67
2018-04-08T08:46:14.808Z,20.85
2018-04-08T08:47:14.810Z,20.92
2018-04-08T08:48:14.812Z,21.06
2018-04-08T08:49:14.831Z,21.18
2018-04-08T08:50:14.817Z,21.30
2018-04-08T08:51:14.827Z,21.45
2018-04-08T08:52:14.824Z,21.52
2018-04-08T08:53:14.830Z,21.72
2018-04-08T08:54:14.834Z,21.80
2018-04-08T08:55:14.841Z,21.99
2018-04-08T08:56:14.847Z,22.18
2018-04-08T08:57:14.845Z,22.30
2018-04-08T08:58:14.851Z,22.41
2018-04-08T08:59:14.859Z,22.53
2018-04-08T09:00:14.859Z,22.62
2018-04-08T09:01:14.864Z,22.70
2018-04-08T09:02:14.871Z,22.57
2018-04-08T09:03:14.871Z,22.55
2018-04-08T09:04:14.881Z,22.57
2018-04-08T09:05:14.888Z,22.62
2018-04-08T09:06:14.893Z,22.65
2018-04-08T09:07:14.898Z,22.83
2018-04-08T09:08:14.903Z,22.81
2018-04-08T09:09:14.908Z,22.84
2018-04-08T09:10:14.917Z,22.83
2018-04-08T09:11:14.919Z,22.84
2018-04-08T09:12:14.925Z,23.02
2018-04-08T09:13:14.930Z,23.06
2018-04-08T09:14:14.938Z,23.17
2018-04-08T09:15:14.942Z,23.24
2018-04-08T09:16:14.949Z,23.34
2018-04-08T09:17:14.952Z,23.40
2018-04-08T09:18:14.960Z,23.37
2018-04-08T09:19:14.966Z,23.37
2018-04-08T09:20:14.973Z,23.56
2018-04-08T09:21:14.978Z,23.74
2018-04-08T09:22:14.987Z,23.87
2018-04-08T09:23:15.015Z,23.87
2018-04-08T09:24:15.011Z,23.77
2018-04-08T09:25:15.005Z,23.69
2018-04-08T09:26:15.012Z,23.68
2018-04-08T09:27:15.068Z,23.61
2018-04-08T09:28:15.055Z,23.65
2018-04-08T09:29:15.026Z,23.58
2018-04-08T09:30:15.033Z,23.68
2018-04-08T09:31:15.035Z,23.56
2018-04-08T09:32:15.046Z,23.43
2018-04-08T09:33:15.047Z,23.47
2018-04-08T09:34:15.058Z,23.50
2018-04-08T09:35:15.062Z,23.47
2018-04-08T09:36:15.167Z,23.46
2018-04-08T09:37:15.072Z,23.47
2018-04-08T09:38:15.078Z,23.36
2018-04-08T09:39:15.083Z,23.43
2018-04-08T09:40:15.087Z,23.39
2018-04-08T09:41:15.095Z,23.50
2018-04-08T09:42:15.099Z,23.65
2018-04-08T09:43:15.108Z,23.83
2018-04-08T09:44:15.112Z,24.02
2018-04-08T09:45:15.118Z,24.24
2018-04-08T09:46:15.129Z,24.32
2018-04-08T09:47:15.124Z,24.40
2018-04-08T09:48:15.137Z,24.47
2018-04-08T09:49:15.138Z,24.60
2018-04-08T09:50:15.145Z,24.78
2018-04-08T09:51:15.147Z,24.85
2018-04-08T09:52:15.157Z,24.76
2018-04-08T09:53:15.163Z,24.85
2018-04-08T09:54:15.189Z,25.03
2018-04-08T09:55:15.177Z,25.11
2018-04-08T09:56:15.181Z,25.13
2018-04-08T09:57:15.187Z,25.22
2018-04-08T09:58:15.194Z,25.38
2018-04-08T09:59:15.214Z,25.70
2018-04-08T10:00:15.208Z,25.88
2018-04-08T10:01:15.219Z,26.03
2018-04-08T10:02:15.223Z,26.16
2018-04-08T10:03:15.232Z,26.25
2018-04-08T10:04:15.237Z,26.34
2018-04-08T10:05:15.244Z,26.33
2018-04-08T10:06:15.269Z,26.43
2018-04-08T10:07:15.262Z,26.59
2018-04-08T10:08:15.272Z,26.88
2018-04-08T10:09:15.282Z,26.93
2018-04-08T10:10:15.313Z,26.92
2018-04-08T10:11:15.297Z,27.11
2018-04-08T10:12:15.306Z,27.27
2018-04-08T10:13:15.314Z,27.27
2018-04-08T10:14:15.322Z,27.42
2018-04-08T10:15:15.342Z,27.45
2018-04-08T10:16:15.344Z,27.44
2018-04-08T10:17:15.353Z,27.52
2018-04-08T10:18:15.367Z,27.37
2018-04-08T10:19:15.375Z,27.39
2018-04-08T10:20:15.382Z,27.26
2018-04-08T10:21:15.392Z,27.11
2018-04-08T10:22:15.402Z,27.14
2018-04-08T10:23:15.408Z,27.05
2018-04-08T10:24:15.418Z,26.93
2018-04-08T10:25:15.430Z,27.02
2018-04-08T10:26:15.439Z,26.95
2018-04-08T10:27:15.448Z,26.81
2018-04-08T10:28:15.455Z,26.71
2018-04-08T10:29:15.519Z,26.88
2018-04-08T10:30:15.521Z,27.02
2018-04-08T10:31:15.484Z,27.05
2018-04-08T10:32:15.496Z,27.17
2018-04-08T10:33:15.501Z,27.21
2018-04-08T10:34:15.509Z,27.11
2018-04-08T10:35:15.516Z,26.85
2018-04-08T10:36:17.171Z,26.89
2018-04-08T10:37:15.532Z,26.89
2018-04-08T10:38:17.513Z,27.00
2018-04-08T10:39:15.545Z,27.22
2018-04-08T10:40:15.553Z,27.27
2018-04-08T10:41:15.561Z,27.29
2018-04-08T10:42:15.568Z,27.11
2018-04-08T10:43:15.578Z,27.00
2018-04-08T10:44:15.583Z,27.03
2018-04-08T10:45:15.590Z,26.93
2018-04-08T10:46:15.597Z,26.97
2018-04-08T10:47:15.605Z,26.95
2018-04-08T10:48:15.615Z,26.78
2018-04-08T10:49:15.618Z,26.65
2018-04-08T10:50:15.625Z,26.45
2018-04-08T10:51:15.635Z,26.44
2018-04-08T10:52:15.640Z,26.29
2018-04-08T10:53:15.646Z,26.25
2018-04-08T10:54:15.651Z,26.10
2018-04-08T10:55:15.659Z,26.05
2018-04-08T10:56:15.666Z,26.00
2018-04-08T10:57:15.670Z,26.00
2018-04-08T10:58:15.701Z,26.09
2018-04-08T10:59:15.683Z,26.23
2018-04-08T11:00:15.684Z,26.31
2018-04-08T11:01:17.198Z,26.37
2018-04-08T11:02:15.705Z,26.55
2018-04-08T11:03:15.712Z,26.65
2018-04-08T11:04:15.715Z,26.70
2018-04-08T11:05:15.719Z,26.78
2018-04-08T11:06:15.723Z,26.89
2018-04-08T11:07:15.730Z,26.85
2018-04-08T11:08:15.738Z,26.85
2018-04-08T11:09:15.739Z,26.88
2018-04-08T11:10:15.753Z,26.92
2018-04-08T11:11:15.753Z,26.83
2018-04-08T11:12:15.754Z,26.84
2018-04-08T11:13:15.760Z,26.84
2018-04-08T11:14:15.768Z,26.80
2018-04-08T11:15:15.772Z,26.71
2018-04-08T11:16:15.779Z,26.83
2018-04-08T11:17:15.782Z,26.93
2018-04-08T11:18:15.790Z,27.18
2018-04-08T11:19:15.795Z,27.39
2018-04-08T11:20:15.801Z,27.54
2018-04-08T11:21:15.818Z,27.59
2018-04-08T11:22:15.815Z,27.59
2018-04-08T11:23:15.822Z,27.59
2018-04-08T11:24:15.830Z,27.63
2018-04-08T11:25:15.836Z,27.54
2018-04-08T11:26:15.844Z,27.59
2018-04-08T11:27:15.853Z,27.60
2018-04-08T11:28:15.861Z,27.82
2018-04-08T11:29:15.872Z,28.07
2018-04-08T11:30:15.878Z,28.15
2018-04-08T11:31:15.890Z,28.17
2018-04-08T11:32:15.896Z,28.20
2018-04-08T11:33:15.902Z,28.33
2018-04-08T11:34:20.414Z,28.60
2018-04-08T11:35:15.922Z,28.67
2018-04-08T11:36:15.929Z,28.52
2018-04-08T11:37:15.938Z,28.62
2018-04-08T11:38:15.949Z,28.94
2018-04-08T11:39:15.960Z,29.24
2018-04-08T11:40:15.970Z,29.35
2018-04-08T11:41:15.981Z,29.51
2018-04-08T11:42:15.987Z,29.54
2018-04-08T11:43:16.025Z,29.56
2018-04-08T11:44:16.007Z,29.53
2018-04-08T11:45:16.028Z,29.44
2018-04-08T11:46:16.022Z,29.49
2018-04-08T11:47:16.090Z,29.50
2018-04-08T11:48:16.045Z,29.61
2018-04-08T11:49:16.057Z,29.75
2018-04-08T11:50:16.068Z,29.97
2018-04-08T11:51:16.080Z,30.12
2018-04-08T11:52:16.093Z,30.23
2018-04-08T11:53:17.730Z,30.19
2018-04-08T11:54:16.108Z,29.95
2018-04-08T11:55:16.124Z,29.60
2018-04-08T11:56:16.126Z,29.41
2018-04-08T11:57:16.140Z,29.38
2018-04-08T11:58:16.152Z,29.32
2018-04-08T11:59:16.161Z,29.49
2018-04-08T12:00:16.173Z,29.44
2018-04-08T12:01:16.273Z,29.57
2018-04-08T12:02:16.189Z,29.49
2018-04-08T12:03:16.199Z,29.38
2018-04-08T12:04:16.209Z,29.35
2018-04-08T12:05:16.217Z,29.32
2018-04-08T12:06:16.251Z,29.57
2018-04-08T12:07:16.238Z,29.63
2018-04-08T12:08:16.247Z,29.59
2018-04-08T12:09:16.287Z,29.63
2018-04-08T12:10:16.260Z,29.60
2018-04-08T12:11:16.274Z,29.76
2018-04-08T12:12:16.286Z,29.95
2018-04-08T12:13:16.292Z,30.16
2018-04-08T12:14:16.302Z,30.18
2018-04-08T12:15:18.251Z,30.21
2018-04-08T12:16:16.321Z,30.12
2018-04-08T12:17:16.329Z,30.24
2018-04-08T12:18:16.338Z,30.37
2018-04-08T12:19:16.354Z,30.18
2018-04-08T12:20:16.359Z,30.03
2018-04-08T12:21:18.251Z,30.03
2018-04-08T12:22:16.380Z,29.76
2018-04-08T12:23:16.391Z,29.71
2018-04-08T12:24:16.405Z,29.86
2018-04-08T12:25:16.413Z,30.18
2018-04-08T12:26:16.423Z,30.23
2018-04-08T12:27:16.432Z,30.25
2018-04-08T12:28:16.445Z,30.47
2018-04-08T12:29:16.454Z,30.51
2018-04-08T12:30:16.463Z,30.46
2018-04-08T12:31:16.502Z,30.31
2018-04-08T12:32:16.488Z,30.31
2018-04-08T12:33:16.494Z,30.16
2018-04-08T12:34:16.509Z,29.97
2018-04-08T12:35:16.518Z,29.88
2018-04-08T12:36:16.530Z,29.82
2018-04-08T12:37:16.541Z,30.16
2018-04-08T12:38:16.548Z,30.32
2018-04-08T12:39:16.565Z,30.19
2018-04-08T12:40:16.568Z,30.21
2018-04-08T12:41:18.266Z,30.19
2018-04-08T12:42:16.598Z,30.16
2018-04-08T12:43:16.607Z,30.12
2018-04-08T12:44:16.619Z,30.19
2018-04-08T12:45:16.626Z,30.50
2018-04-08T12:46:16.638Z,30.69
2018-04-08T12:47:16.648Z,30.63
2018-04-08T12:48:16.663Z,30.51
2018-04-08T12:49:16.668Z,30.68
2018-04-08T12:50:16.679Z,30.63
2018-04-08T12:51:16.689Z,30.55
2018-04-08T12:52:16.703Z,30.46